createdAt,value
2023-02-02T00:00:26.566Z,2.53
2023-02-02T00:02:54.786Z,3.00
2023-02-02T00:05:23.205Z,2.60
2023-02-02T00:07:53.095Z,2.20
2023-02-02T00:10:21.201Z,2.20
2023-02-02T00:12:49.273Z,1.90
2023-02-02T00:15:17.541Z,2.80
2023-02-02T00:17:45.646Z,2.60
2023-02-02T00:20:13.951Z,2.15
2023-02-02T00:22:42.046Z,4.50
2023-02-02T00:25:11.870Z,3.60
2023-02-02T00:27:39.980Z,3.97
2023-02-02T00:30:09.349Z,2.87
2023-02-02T00:32:37.476Z,2.13
2023-02-02T00:35:05.663Z,2.40
2023-02-02T00:37:33.797Z,2.67
2023-02-02T00:40:03.291Z,3.80
2023-02-02T00:42:32.822Z,3.00
2023-02-02T00:45:18.498Z,3.25
2023-02-02T00:47:48.498Z,2.55
2023-02-02T00:50:19.340Z,3.95
2023-02-02T00:52:47.985Z,3.15
2023-02-02T00:55:17.155Z,4.28
2023-02-02T00:57:46.635Z,2.58
2023-02-02T01:00:17.503Z,2.92
2023-02-02T01:02:45.931Z,2.65
2023-02-02T01:05:14.207Z,2.55
2023-02-02T01:07:42.664Z,2.67
2023-02-02T01:10:14.729Z,2.95
2023-02-02T01:12:44.351Z,2.85
2023-02-02T01:15:14.563Z,3.05
2023-02-02T01:17:42.990Z,3.10
2023-02-02T01:20:17.064Z,3.20
2023-02-02T01:22:45.399Z,4.20
2023-02-02T01:25:13.585Z,3.85
2023-02-02T01:27:43.205Z,3.08
2023-02-02T01:30:14.588Z,2.57
2023-02-02T01:32:42.795Z,2.80
2023-02-02T01:35:11.361Z,2.20
2023-02-02T01:37:40.537Z,3.20
2023-02-02T01:40:09.951Z,2.67
2023-02-02T01:42:38.075Z,3.28
2023-02-02T01:45:17.323Z,2.60
2023-02-02T01:47:50.172Z,1.83
2023-02-02T01:50:20.548Z,2.53
2023-02-02T01:52:51.055Z,2.42
2023-02-02T01:55:22.854Z,2.65
2023-02-02T01:57:55.138Z,2.30
2023-02-02T02:00:27.745Z,2.17
2023-02-02T02:02:59.512Z,1.75
2023-02-02T02:05:34.592Z,2.35
2023-02-02T02:08:10.176Z,2.08
2023-02-02T02:10:38.362Z,1.77
2023-02-02T02:13:07.310Z,1.90
2023-02-02T02:15:59.607Z,2.30
2023-02-02T02:18:39.911Z,1.50
2023-02-02T02:21:49.794Z,2.35
2023-02-02T02:25:11.130Z,2.30
2023-02-02T02:28:13.872Z,2.60
2023-02-02T02:31:29.742Z,2.15
2023-02-02T02:34:05.403Z,2.35
2023-02-02T02:36:44.508Z,2.40
2023-02-02T02:39:18.122Z,3.15
2023-02-02T02:41:50.260Z,3.10
2023-02-02T02:44:21.379Z,3.40
2023-02-02T02:46:51.184Z,2.00
2023-02-02T02:49:21.302Z,4.20
2023-02-02T02:51:51.987Z,3.35
2023-02-02T02:54:43.157Z,4.15
2023-02-02T02:57:33.519Z,3.53
2023-02-02T03:00:09.920Z,2.67
2023-02-02T03:02:45.906Z,2.80
2023-02-02T03:05:27.671Z,3.00
2023-02-02T03:08:03.186Z,3.00
2023-02-02T03:10:32.204Z,2.72
2023-02-02T03:13:00.344Z,2.63
2023-02-02T03:15:28.472Z,3.00
2023-02-02T03:17:56.709Z,3.00
2023-02-02T03:20:26.193Z,2.40
2023-02-02T03:22:54.316Z,3.53
2023-02-02T03:25:23.912Z,3.00
2023-02-02T03:27:52.801Z,2.42
2023-02-02T03:30:21.284Z,3.05
2023-02-02T03:32:50.668Z,3.88
2023-02-02T03:35:20.808Z,3.15
2023-02-02T03:37:50.271Z,2.95
2023-02-02T03:40:18.968Z,3.53
2023-02-02T03:42:47.124Z,3.10
2023-02-02T03:45:15.477Z,3.10
2023-02-02T03:47:43.639Z,3.30
2023-02-02T03:50:12.312Z,3.28
2023-02-02T03:52:42.879Z,4.40
2023-02-02T03:55:12.583Z,3.80
2023-02-02T03:57:40.660Z,3.10
2023-02-02T04:00:10.182Z,3.20
2023-02-02T04:02:41.033Z,3.03
2023-02-02T04:05:09.667Z,3.38
2023-02-02T04:07:37.774Z,3.35
2023-02-02T04:10:06.556Z,2.80
2023-02-02T04:12:36.010Z,3.00
2023-02-02T04:15:04.287Z,2.25
2023-02-02T04:17:32.392Z,4.80
2023-02-02T04:20:00.469Z,4.25
2023-02-02T04:22:28.806Z,3.90
2023-02-02T04:24:56.927Z,3.15
2023-02-02T04:27:25.354Z,2.30
2023-02-02T04:29:54.832Z,2.75
2023-02-02T04:32:22.976Z,2.55
2023-02-02T04:34:51.103Z,2.47
2023-02-02T04:37:19.216Z,1.85
2023-02-02T04:39:47.374Z,1.90
2023-02-02T04:42:15.461Z,2.80
2023-02-02T04:44:45.783Z,2.90
2023-02-02T04:47:15.269Z,3.35
2023-02-02T04:49:43.430Z,4.30
2023-02-02T04:52:12.532Z,4.80
2023-02-02T04:54:40.706Z,4.13
2023-02-02T04:57:08.854Z,2.90
2023-02-02T04:59:36.976Z,2.58
2023-02-02T05:02:05.067Z,2.90
2023-02-02T05:04:34.558Z,2.33
2023-02-02T05:07:02.682Z,2.58
2023-02-02T05:09:31.180Z,2.75
2023-02-02T05:11:59.285Z,2.67
2023-02-02T05:14:27.371Z,1.73
2023-02-02T05:16:55.471Z,1.98
2023-02-02T05:19:23.591Z,1.80
2023-02-02T05:21:54.688Z,2.10
2023-02-02T05:24:22.834Z,2.27
2023-02-02T05:26:50.986Z,3.70
2023-02-02T05:29:19.908Z,2.47
2023-02-02T05:31:48.352Z,3.53
2023-02-02T05:34:16.642Z,2.40
2023-02-02T05:36:44.860Z,2.30
2023-02-02T05:39:14.552Z,2.53
2023-02-02T05:41:42.793Z,2.07
2023-02-02T05:44:12.735Z,1.47
2023-02-02T05:46:41.321Z,1.47
2023-02-02T05:49:12.408Z,0.90
2023-02-02T05:51:43.776Z,1.80
2023-02-02T05:54:12.251Z,1.57
2023-02-02T05:56:41.699Z,1.30
2023-02-02T05:59:09.805Z,2.40
2023-02-02T06:01:37.987Z,1.77
2023-02-02T06:04:06.321Z,1.40
2023-02-02T06:06:35.563Z,1.90
2023-02-02T06:09:03.749Z,1.80
2023-02-02T06:11:31.875Z,2.30
2023-02-02T06:14:01.421Z,3.17
2023-02-02T06:16:29.516Z,2.93
2023-02-02T06:18:58.108Z,3.33
2023-02-02T06:21:26.247Z,3.87
2023-02-02T06:23:54.492Z,3.03
2023-02-02T06:26:22.601Z,2.23
2023-02-02T06:28:52.831Z,2.97
2023-02-02T06:31:23.010Z,3.60
2023-02-02T06:33:56.228Z,2.43
2023-02-02T06:36:25.134Z,2.83
2023-02-02T06:38:54.931Z,2.23
2023-02-02T06:41:23.287Z,2.00
2023-02-02T06:43:51.878Z,2.30
2023-02-02T06:46:20.104Z,1.87
2023-02-02T06:48:49.603Z,2.13
2023-02-02T06:51:19.718Z,1.83
2023-02-02T06:53:49.374Z,1.30
2023-02-02T06:56:17.943Z,1.70
2023-02-02T06:58:46.236Z,2.77
2023-02-02T07:01:15.657Z,1.93
2023-02-02T07:03:44.336Z,1.83
2023-02-02T07:06:15.243Z,1.90
2023-02-02T07:08:43.475Z,1.90
2023-02-02T07:11:15.084Z,1.33
2023-02-02T07:13:44.723Z,2.50
2023-02-02T07:16:14.020Z,1.60
2023-02-02T07:18:44.058Z,1.63
2023-02-02T07:21:18.659Z,2.50
2023-02-02T07:23:47.093Z,1.73
2023-02-02T07:26:16.896Z,1.73
2023-02-02T07:28:45.402Z,2.13
2023-02-02T07:31:15.300Z,1.70
2023-02-02T07:33:44.404Z,2.40
2023-02-02T07:36:16.221Z,2.00
2023-02-02T07:38:45.048Z,2.07
2023-02-02T07:41:13.651Z,3.03
2023-02-02T07:43:42.012Z,2.50
2023-02-02T07:46:14.337Z,2.20
2023-02-02T07:48:42.806Z,2.35
2023-02-02T07:51:15.226Z,2.10
2023-02-02T07:53:45.583Z,2.90
2023-02-02T07:56:15.622Z,2.90
2023-02-02T07:58:44.490Z,3.20
2023-02-02T08:01:15.837Z,2.87
2023-02-02T08:03:44.782Z,3.00
2023-02-02T08:06:17.106Z,3.22
2023-02-02T08:08:45.368Z,3.50
2023-02-02T08:11:15.837Z,3.33
2023-02-02T08:13:44.753Z,4.25
2023-02-02T08:16:13.784Z,3.72
2023-02-02T08:18:42.359Z,3.20
2023-02-02T08:21:11.752Z,3.23
2023-02-02T08:23:42.640Z,3.40
2023-02-02T08:26:12.520Z,2.43
2023-02-02T08:28:41.439Z,4.37
2023-02-02T08:31:11.316Z,2.97
2023-02-02T08:33:39.895Z,4.00
2023-02-02T08:36:12.506Z,2.93
2023-02-02T08:38:42.636Z,2.00
2023-02-02T08:41:13.566Z,2.80
2023-02-02T08:43:42.274Z,2.70
2023-02-02T08:46:13.451Z,2.40
2023-02-02T08:48:42.403Z,2.60
2023-02-02T08:51:12.767Z,2.10
2023-02-02T08:53:42.796Z,1.80
2023-02-02T08:56:13.466Z,1.80
2023-02-02T08:58:45.716Z,1.40
2023-02-02T09:01:16.058Z,1.53
2023-02-02T09:03:45.276Z,1.60
2023-02-02T09:06:15.895Z,1.73
2023-02-02T09:08:46.021Z,1.77
2023-02-02T09:11:15.819Z,2.30
2023-02-02T09:13:46.560Z,1.90
2023-02-02T09:16:16.870Z,1.67
2023-02-02T09:18:46.108Z,1.60
2023-02-02T09:21:16.718Z,1.33
2023-02-02T09:23:47.410Z,1.40
2023-02-02T09:26:17.504Z,1.23
2023-02-02T09:28:48.280Z,1.30
2023-02-02T09:31:17.228Z,1.57
2023-02-02T09:33:45.463Z,1.60
2023-02-02T09:36:16.363Z,1.37
2023-02-02T09:38:46.173Z,1.47
2023-02-02T09:41:39.033Z,1.63
2023-02-02T09:44:15.870Z,2.20
2023-02-02T09:46:53.689Z,1.80
2023-02-02T09:49:28.495Z,1.40
2023-02-02T09:52:00.479Z,1.37
2023-02-02T09:54:35.369Z,1.90
2023-02-02T09:57:06.813Z,1.73
2023-02-02T09:59:40.851Z,1.33
2023-02-02T10:02:18.199Z,1.20
2023-02-02T10:04:50.774Z,1.50
2023-02-02T10:07:22.372Z,1.60
2023-02-02T10:10:01.338Z,1.10
2023-02-02T10:12:37.150Z,1.70
2023-02-02T10:15:13.484Z,1.40
2023-02-02T10:17:47.851Z,1.50
2023-02-02T10:20:35.214Z,1.43
2023-02-02T10:23:12.453Z,1.50
2023-02-02T10:25:52.321Z,1.40
2023-02-02T10:28:21.470Z,1.37
2023-02-02T10:31:00.234Z,1.50
2023-02-02T10:33:36.968Z,1.40
2023-02-02T10:36:12.745Z,1.27
2023-02-02T10:38:46.234Z,1.50
2023-02-02T10:41:25.008Z,1.40
2023-02-02T10:44:10.202Z,1.60
2023-02-02T10:46:41.951Z,1.33
2023-02-02T10:49:20.041Z,1.17
2023-02-02T10:51:55.183Z,1.30
2023-02-02T10:54:55.494Z,1.20
2023-02-02T10:57:39.762Z,1.40
2023-02-02T11:00:22.354Z,1.30
2023-02-02T11:02:51.654Z,1.60
2023-02-02T11:05:41.073Z,1.90
2023-02-02T11:08:21.005Z,1.17
2023-02-02T11:10:53.191Z,1.17
2023-02-02T11:13:30.056Z,1.30
2023-02-02T11:16:21.306Z,1.40
2023-02-02T11:18:49.761Z,1.07
2023-02-02T11:21:23.229Z,1.30
2023-02-02T11:24:00.955Z,1.50
2023-02-02T11:26:43.723Z,1.70
2023-02-02T11:29:20.555Z,1.20
2023-02-02T11:31:48.793Z,1.50
2023-02-02T11:34:20.836Z,1.37
2023-02-02T11:37:11.840Z,1.30
2023-02-02T11:39:40.168Z,1.53
2023-02-02T11:42:12.383Z,1.53
2023-02-02T11:44:58.064Z,1.03
2023-02-02T11:47:33.880Z,1.17
2023-02-02T11:50:05.371Z,1.00
2023-02-02T11:52:36.975Z,1.70
2023-02-02T11:55:16.381Z,1.33
2023-02-02T11:58:12.165Z,1.57
2023-02-02T12:00:50.330Z,1.10
2023-02-02T12:03:31.035Z,1.20
2023-02-02T12:05:59.619Z,1.43
2023-02-02T12:08:27.686Z,1.63
2023-02-02T12:11:02.180Z,1.00
2023-02-02T12:13:55.000Z,1.00
2023-02-02T12:16:37.112Z,1.60
2023-02-02T12:19:42.508Z,1.20
2023-02-02T12:22:28.056Z,1.30
2023-02-02T12:25:07.409Z,1.70
2023-02-02T12:27:48.205Z,1.43
2023-02-02T12:30:28.572Z,2.67
2023-02-02T12:33:24.260Z,1.20
2023-02-02T12:36:10.533Z,1.43
2023-02-02T12:39:05.088Z,1.30
2023-02-02T12:41:50.574Z,1.10
2023-02-02T12:44:29.364Z,1.30
2023-02-02T12:47:07.135Z,1.33
2023-02-02T12:49:54.296Z,1.53
2023-02-02T12:52:38.655Z,1.37
2023-02-02T12:55:17.868Z,1.70
2023-02-02T12:57:54.134Z,1.40
2023-02-02T13:00:53.913Z,1.33
2023-02-02T13:03:37.983Z,1.50
2023-02-02T13:06:39.484Z,1.57
2023-02-02T13:09:12.464Z,1.90
2023-02-02T13:11:49.774Z,1.70
2023-02-02T13:14:24.447Z,1.50
2023-02-02T13:16:57.300Z,1.60
2023-02-02T13:19:33.422Z,1.57
2023-02-02T13:22:07.189Z,1.70
2023-02-02T13:24:39.974Z,2.17
2023-02-02T13:27:14.114Z,1.43
2023-02-02T13:29:48.425Z,2.13
2023-02-02T13:32:24.394Z,1.43
2023-02-02T13:34:56.767Z,1.37
2023-02-02T13:37:37.110Z,1.70
2023-02-02T13:40:16.030Z,1.30
2023-02-02T13:42:48.647Z,1.50
2023-02-02T13:45:37.372Z,2.50
2023-02-02T13:48:15.957Z,1.87
2023-02-02T13:50:59.088Z,2.13
2023-02-02T13:53:54.668Z,1.93
2023-02-02T13:56:45.082Z,1.93
2023-02-02T13:59:26.585Z,1.83
2023-02-02T14:01:57.763Z,1.87
2023-02-02T14:04:29.456Z,1.97
2023-02-02T14:07:01.001Z,1.33
2023-02-02T14:09:34.060Z,1.83
2023-02-02T14:12:06.857Z,1.90
2023-02-02T14:14:38.097Z,1.53
2023-02-02T14:17:08.497Z,1.87
2023-02-02T14:19:52.379Z,1.80
2023-02-02T14:22:41.981Z,1.80
2023-02-02T14:25:53.321Z,1.73
2023-02-02T14:28:43.412Z,1.40
2023-02-02T14:31:53.381Z,1.77
2023-02-02T14:34:34.979Z,1.60
2023-02-02T14:37:42.292Z,1.60
2023-02-02T14:40:29.793Z,1.97
2023-02-02T14:43:30.842Z,1.53
2023-02-02T14:46:48.314Z,1.63
2023-02-02T14:49:21.153Z,1.93
2023-02-02T14:52:01.332Z,1.63
2023-02-02T14:54:38.916Z,1.30
2023-02-02T14:57:25.608Z,1.67
2023-02-02T14:59:59.939Z,1.27
2023-02-02T15:02:35.583Z,1.50
2023-02-02T15:05:41.852Z,1.80
2023-02-02T15:08:22.782Z,1.87
2023-02-02T15:11:30.617Z,1.60
2023-02-02T15:14:17.286Z,1.83
2023-02-02T15:16:47.827Z,1.53
2023-02-02T15:19:25.890Z,1.50
2023-02-02T15:21:58.302Z,1.37
2023-02-02T15:24:28.418Z,1.40
2023-02-02T15:27:00.103Z,1.50
2023-02-02T15:29:43.402Z,2.17
2023-02-02T15:32:28.474Z,1.63
2023-02-02T15:35:01.717Z,1.70
2023-02-02T15:37:40.007Z,1.73
2023-02-02T15:40:15.799Z,1.10
2023-02-02T15:42:55.837Z,1.47
2023-02-02T15:45:38.012Z,1.20
2023-02-02T15:48:19.607Z,1.50
2023-02-02T15:50:51.060Z,1.30
2023-02-02T15:53:21.825Z,1.40
2023-02-02T15:55:50.288Z,1.03
2023-02-02T15:58:27.695Z,1.50
2023-02-02T16:01:05.085Z,1.30
2023-02-02T16:03:44.577Z,1.50
2023-02-02T16:06:13.161Z,1.53
2023-02-02T16:08:42.369Z,1.20
2023-02-02T16:11:13.935Z,1.30
2023-02-02T16:13:45.020Z,1.17
2023-02-02T16:16:29.062Z,1.83
2023-02-02T16:19:07.138Z,1.40
2023-02-02T16:21:38.595Z,1.47
2023-02-02T16:24:12.912Z,1.10
2023-02-02T16:26:41.251Z,1.40
2023-02-02T16:29:16.961Z,1.23
2023-02-02T16:31:46.476Z,1.20
2023-02-02T16:34:41.045Z,1.20
2023-02-02T16:37:15.218Z,0.87
2023-02-02T16:39:44.166Z,1.70
2023-02-02T16:42:12.668Z,1.40
2023-02-02T16:44:43.852Z,1.63
2023-02-02T16:47:44.528Z,1.30
2023-02-02T16:50:28.640Z,1.30
2023-02-02T16:53:00.657Z,1.50
2023-02-02T16:55:47.422Z,1.50
2023-02-02T16:58:20.865Z,1.20
2023-02-02T17:01:14.058Z,1.27
2023-02-02T17:03:53.734Z,1.10
2023-02-02T17:06:45.820Z,1.03
2023-02-02T17:09:35.261Z,1.27
2023-02-02T17:12:14.264Z,1.43
2023-02-02T17:14:56.680Z,1.43
2023-02-02T17:17:24.969Z,1.53
2023-02-02T17:19:53.340Z,1.77
2023-02-02T17:22:26.043Z,1.40
2023-02-02T17:24:54.641Z,1.60
2023-02-02T17:27:28.147Z,1.47
2023-02-02T17:29:57.054Z,1.50
2023-02-02T17:32:25.531Z,1.33
2023-02-02T17:34:53.824Z,1.30
2023-02-02T17:37:23.278Z,1.10
2023-02-02T17:39:51.467Z,1.60
2023-02-02T17:42:25.416Z,1.47
2023-02-02T17:44:53.722Z,1.47
2023-02-02T17:47:21.858Z,1.60
2023-02-02T17:49:49.984Z,1.47
2023-02-02T17:52:18.054Z,1.20
2023-02-02T17:54:47.514Z,1.20
2023-02-02T17:57:16.470Z,1.10
2023-02-02T17:59:44.544Z,1.20
2023-02-02T18:02:16.085Z,1.37
2023-02-02T18:04:45.713Z,1.00
2023-02-02T18:07:14.152Z,1.30
2023-02-02T18:09:42.253Z,1.67
2023-02-02T18:12:11.781Z,1.30
2023-02-02T18:14:40.077Z,1.53
2023-02-02T18:17:09.050Z,1.20
2023-02-02T18:19:39.192Z,1.00
2023-02-02T18:22:07.518Z,1.57
2023-02-02T18:24:35.882Z,1.60
2023-02-02T18:27:04.072Z,1.70
2023-02-02T18:29:33.690Z,1.07
2023-02-02T18:32:02.151Z,1.23
2023-02-02T18:34:31.258Z,1.07
2023-02-02T18:36:59.509Z,1.50
2023-02-02T18:39:27.763Z,1.30
2023-02-02T18:41:55.893Z,1.63
2023-02-02T18:44:24.397Z,1.47
2023-02-02T18:46:54.191Z,1.40
2023-02-02T18:49:22.317Z,1.83
2023-02-02T18:51:50.514Z,1.80
2023-02-02T18:54:18.668Z,1.20
2023-02-02T18:56:46.912Z,1.57
2023-02-02T18:59:15.419Z,1.30
2023-02-02T19:01:43.623Z,1.30
2023-02-02T19:04:13.139Z,1.50
2023-02-02T19:06:58.680Z,1.67
2023-02-02T19:09:26.918Z,1.47
2023-02-02T19:11:55.791Z,1.97
2023-02-02T19:14:32.010Z,1.77
2023-02-02T19:17:05.848Z,1.87
2023-02-02T19:19:35.865Z,1.53
2023-02-02T19:22:14.589Z,1.70
2023-02-02T19:24:42.744Z,1.73
2023-02-02T19:27:18.062Z,1.63
2023-02-02T19:29:47.366Z,1.87
2023-02-02T19:32:18.290Z,1.40
2023-02-02T19:34:48.520Z,1.80
2023-02-02T19:37:26.001Z,1.60
2023-02-02T19:39:56.561Z,1.70
2023-02-02T19:42:25.729Z,1.70
2023-02-02T19:44:54.716Z,2.20
2023-02-02T19:47:34.129Z,2.70
2023-02-02T19:50:15.546Z,1.10
2023-02-02T19:52:44.163Z,1.60
2023-02-02T19:55:26.979Z,2.20
2023-02-02T19:58:01.621Z,2.00
2023-02-02T20:00:33.783Z,2.40
2023-02-02T20:03:06.771Z,2.00
2023-02-02T20:05:39.292Z,1.70
2023-02-02T20:08:14.982Z,1.40
2023-02-02T20:10:44.516Z,1.80
2023-02-02T20:13:19.895Z,1.77
2023-02-02T20:15:49.124Z,1.33
2023-02-02T20:18:20.161Z,1.60
2023-02-02T20:20:54.045Z,2.20
2023-02-02T20:23:42.310Z,1.50
2023-02-02T20:26:21.213Z,1.47
2023-02-02T20:28:53.442Z,1.43
2023-02-02T20:31:24.921Z,1.60
2023-02-02T20:33:55.572Z,1.57
2023-02-02T20:36:37.825Z,1.90
2023-02-02T20:39:24.793Z,1.50
2023-02-02T20:41:54.169Z,1.30
2023-02-02T20:44:22.483Z,1.40
2023-02-02T20:46:50.760Z,1.30
2023-02-02T20:49:20.654Z,1.30
2023-02-02T20:51:50.368Z,1.50
2023-02-02T20:54:18.505Z,1.40
2023-02-02T20:56:46.849Z,1.73
2023-02-02T20:59:15.055Z,1.43
2023-02-02T21:01:43.519Z,1.30
2023-02-02T21:04:11.818Z,1.60
2023-02-02T21:06:42.170Z,1.50
2023-02-02T21:09:11.979Z,1.47
2023-02-02T21:11:40.443Z,1.83
2023-02-02T21:14:08.922Z,1.50
2023-02-02T21:16:37.503Z,1.30
2023-02-02T21:19:05.806Z,1.27
2023-02-02T21:21:34.045Z,1.87
2023-02-02T21:24:02.427Z,1.50
2023-02-02T21:26:31.963Z,1.10
2023-02-02T21:29:00.150Z,1.30
2023-02-02T21:31:28.962Z,1.50
2023-02-02T21:33:57.371Z,1.50
2023-02-02T21:36:33.609Z,1.33
2023-02-02T21:39:16.364Z,1.77
2023-02-02T21:41:46.204Z,1.23
2023-02-02T21:44:16.842Z,1.27
2023-02-02T21:46:46.371Z,1.47
2023-02-02T21:49:22.796Z,1.40
2023-02-02T21:51:51.321Z,1.43
2023-02-02T21:54:23.457Z,1.30
2023-02-02T21:56:53.761Z,1.63
2023-02-02T21:59:23.760Z,1.30
2023-02-02T22:01:53.447Z,1.67
2023-02-02T22:04:24.221Z,1.43
2023-02-02T22:06:54.368Z,1.50
2023-02-02T22:09:24.972Z,1.40
2023-02-02T22:11:59.120Z,1.50
2023-02-02T22:14:36.915Z,1.40
2023-02-02T22:17:19.704Z,1.27
2023-02-02T22:19:47.832Z,1.13
2023-02-02T22:22:18.690Z,1.20
2023-02-02T22:24:49.255Z,1.93
2023-02-02T22:27:24.188Z,1.60
2023-02-02T22:29:57.812Z,1.40
2023-02-02T22:32:26.008Z,1.50
2023-02-02T22:34:54.088Z,1.20
2023-02-02T22:37:22.194Z,1.30
2023-02-02T22:39:50.279Z,1.43
2023-02-02T22:42:18.527Z,1.87
2023-02-02T22:44:48.238Z,1.30
2023-02-02T22:47:16.334Z,1.20
2023-02-02T22:49:44.474Z,1.50
2023-02-02T22:52:12.590Z,1.77
2023-02-02T22:54:40.676Z,1.50
2023-02-02T22:57:08.809Z,1.40
2023-02-02T22:59:36.886Z,1.60
2023-02-02T23:02:06.899Z,1.23
2023-02-02T23:04:37.852Z,1.20
2023-02-02T23:07:06.497Z,1.50
2023-02-02T23:09:34.826Z,1.40
2023-02-02T23:12:02.977Z,1.70
2023-02-02T23:14:31.107Z,1.60
2023-02-02T23:16:59.226Z,1.30
2023-02-02T23:19:28.628Z,1.30
2023-02-02T23:21:56.765Z,1.23
2023-02-02T23:24:24.879Z,1.40
2023-02-02T23:26:52.992Z,1.63
2023-02-02T23:29:21.083Z,1.10
2023-02-02T23:31:49.311Z,1.30
2023-02-02T23:34:17.499Z,1.50
2023-02-02T23:36:47.355Z,1.50
2023-02-02T23:39:15.596Z,1.33
2023-02-02T23:41:43.777Z,1.60
2023-02-02T23:44:12.001Z,1.53
2023-02-02T23:46:40.995Z,1.33
2023-02-02T23:49:11.621Z,1.80
2023-02-02T23:51:39.981Z,1.40
2023-02-02T23:54:11.323Z,1.80
2023-02-02T23:56:39.844Z,1.23
2023-02-02T23:59:10.106Z,1.90
